To NAV CANADA Home Page Login to a new session Search on AWWS site Disclaimer Vers la page française équivalente Tips FAQ What's new on the site To the Forecasts and Observations / NOTAM section To "File a Flight Plan" website Publications and other links Update of the User's profile FIC Telephone Numbers My Weather Data Folder Route Weather Data Regional Weather Data Local Weather Data To the Forecasts and Observations / NOTAM section
Request Generated 04/25/2019 at 08:20:58 UTC . Weather information available at that time is displayed.

METAR/TAF

BUFFALO NARROWS/SK    

LWIS CYVT 250800Z AUTO 30011G18KT 04/M03 A2990=
LWIS CYVT 250700Z AUTO 31009G15KT 03/M02 A2988=
LWIS CYVT 250600Z AUTO 30014G20KT 04/M03 A2987=

*** REMARK        : Forecast period has ended; this was the last TAF issued
*** REMARQUE : La période de prévision est échue; ceci était le dernier TAF qui a été émis
TAF CYVT 250038Z 2501/2504 30012KT P6SM BKN080 OVC120 TEMPO 2501/2504
P6SM -SHRA BKN060
RMK NXT FCST WILL BE ISSUED AT 251345Z=
Your time UTC time
Weather data provided by Environment Canada and NAV CANADA